sensor_id;sensor_type;location;lat;lon;timestamp;pressure;altitude;pressure_sealevel;temperature;humidity
41800;BME280;27468;47.460;19.034;2023-05-01T00:00:46;100645.00;;;10.75;72.88
41800;BME280;27468;47.460;19.034;2023-05-01T00:03:12;100644.13;;;10.73;73.00
41800;BME280;27468;47.460;19.034;2023-05-01T00:05:38;100690.25;;;11.01;72.54
41800;BME280;27468;47.460;19.034;2023-05-01T00:08:03;100696.31;;;11.06;72.76
41800;BME280;27468;47.460;19.034;2023-05-01T00:10:29;100680.53;;;11.03;70.18
41800;BME280;27468;47.460;19.034;2023-05-01T00:12:55;100686.88;;;10.95;73.16
41800;BME280;27468;47.460;19.034;2023-05-01T00:15:20;100678.84;;;10.99;73.32
41800;BME280;27468;47.460;19.034;2023-05-01T00:17:46;100658.03;;;10.84;73.05
41800;BME280;27468;47.460;19.034;2023-05-01T00:20:11;100657.31;;;10.73;74.19
41800;BME280;27468;47.460;19.034;2023-05-01T00:22:37;100678.09;;;10.93;73.96
41800;BME280;27468;47.460;19.034;2023-05-01T00:25:03;100698.31;;;10.94;74.35
41800;BME280;27468;47.460;19.034;2023-05-01T00:27:29;100659.88;;;10.79;74.25
41800;BME280;27468;47.460;19.034;2023-05-01T00:29:54;100678.38;;;10.76;74.62
41800;BME280;27468;47.460;19.034;2023-05-01T00:32:20;100632.22;;;10.49;74.78
41800;BME280;27468;47.460;19.034;2023-05-01T00:34:45;100673.28;;;10.64;74.77
41800;BME280;27468;47.460;19.034;2023-05-01T00:37:12;100675.91;;;10.65;75.04
41800;BME280;27468;47.460;19.034;2023-05-01T00:39:38;100683.75;;;10.68;75.24
41800;BME280;27468;47.460;19.034;2023-05-01T00:42:03;100676.88;;;10.59;75.37
41800;BME280;27468;47.460;19.034;2023-05-01T00:44:29;100694.38;;;10.64;75.72
41800;BME280;27468;47.460;19.034;2023-05-01T00:46:54;100649.91;;;10.41;75.64
41800;BME280;27468;47.460;19.034;2023-05-01T00:49:22;100689.19;;;10.59;75.32
41800;BME280;27468;47.460;19.034;2023-05-01T00:51:50;100684.88;;;10.52;74.29
41800;BME280;27468;47.460;19.034;2023-05-01T00:54:17;100673.53;;;10.47;74.30
41800;BME280;27468;47.460;19.034;2023-05-01T00:56:45;100624.00;;;10.09;73.94
41800;BME280;27468;47.460;19.034;2023-05-01T00:59:11;100685.19;;;10.34;74.55
41800;BME280;27468;47.460;19.034;2023-05-01T01:01:37;100691.28;;;10.37;74.76
41800;BME280;27468;47.460;19.034;2023-05-01T01:04:02;100679.94;;;10.32;74.79
41800;BME280;27468;47.460;19.034;2023-05-01T01:06:53;100620.59;;;10.01;75.09
41800;BME280;27468;47.460;19.034;2023-05-01T01:12:10;100695.69;;;10.37;75.45
41800;BME280;27468;47.460;19.034;2023-05-01T01:14:47;100619.81;;;9.92;75.04
41800;BME280;27468;47.460;19.034;2023-05-01T01:17:29;100695.69;;;10.35;75.49
41800;BME280;27468;47.460;19.034;2023-05-01T01:22:28;100679.22;;;10.19;75.89
41800;BME280;27468;47.460;19.034;2023-05-01T01:25:32;100645.22;;;9.97;76.25
41800;BME280;27468;47.460;19.034;2023-05-01T01:28:16;100695.88;;;10.21;75.88
41800;BME280;27468;47.460;19.034;2023-05-01T01:31:03;100702.03;;;10.20;76.35
41800;BME280;27468;47.460;19.034;2023-05-01T01:33:49;100695.13;;;10.09;76.59
41800;BME280;27468;47.460;19.034;2023-05-01T01:39:09;100686.41;;;10.05;76.34
41800;BME280;27468;47.460;19.034;2023-05-01T01:41:38;100643.00;;;9.68;77.05
41800;BME280;27468;47.460;19.034;2023-05-01T01:44:09;100629.88;;;9.65;76.76
41800;BME280;27468;47.460;19.034;2023-05-01T01:46:40;100690.00;;;9.97;76.33
41800;BME280;27468;47.460;19.034;2023-05-01T01:49:12;100672.56;;;9.86;76.48
41800;BME280;27468;47.460;19.034;2023-05-01T01:51:40;100694.38;;;9.99;76.37
41800;BME280;27468;47.460;19.034;2023-05-01T01:54:07;100681.34;;;9.87;76.60
41800;BME280;27468;47.460;19.034;2023-05-01T01:56:35;100658.69;;;9.75;76.59
41800;BME280;27468;47.460;19.034;2023-05-01T01:59:04;100680.56;;;9.82;76.64
41800;BME280;27468;47.460;19.034;2023-05-01T02:01:30;100668.38;;;9.73;77.41
41800;BME280;27468;47.460;19.034;2023-05-01T02:03:57;100668.34;;;9.75;77.00
41800;BME280;27468;47.460;19.034;2023-05-01T02:06:24;100634.41;;;9.52;76.91
41800;BME280;27468;47.460;19.034;2023-05-01T02:08:52;100649.97;;;9.70;76.82
41800;BME280;27468;47.460;19.034;2023-05-01T02:11:19;100691.94;;;9.82;77.48
41800;BME280;27468;47.460;19.034;2023-05-01T02:13:46;100686.72;;;9.81;77.76
41800;BME280;27468;47.460;19.034;2023-05-01T02:16:13;100637.09;;;9.46;78.23
41800;BME280;27468;47.460;19.034;2023-05-01T02:18:40;100677.22;;;9.66;78.26
41800;BME280;27468;47.460;19.034;2023-05-01T02:21:08;100644.97;;;9.47;78.91
41800;BME280;27468;47.460;19.034;2023-05-01T02:23:36;100668.53;;;9.58;79.92
41800;BME280;27468;47.460;19.034;2023-05-01T02:26:02;100672.84;;;9.65;80.44
41800;BME280;27468;47.460;19.034;2023-05-01T02:28:29;100691.16;;;9.77;80.45
41800;BME280;27468;47.460;19.034;2023-05-01T02:30:55;100602.97;;;9.38;80.24
41800;BME280;27468;47.460;19.034;2023-05-01T02:33:21;100677.81;;;9.89;79.94
41800;BME280;27468;47.460;19.034;2023-05-01T02:35:47;100653.31;;;9.83;79.84
41800;BME280;27468;47.460;19.034;2023-05-01T02:38:13;100649.75;;;9.87;79.04
41800;BME280;27468;47.460;19.034;2023-05-01T02:40:43;100690.59;;;10.21;78.58
41800;BME280;27468;47.460;19.034;2023-05-01T02:43:11;100677.41;;;10.23;77.86
41800;BME280;27468;47.460;19.034;2023-05-01T02:45:39;100686.91;;;10.35;77.29
41800;BME280;27468;47.460;19.034;2023-05-01T02:48:06;100588.44;;;9.79;76.66
41800;BME280;27468;47.460;19.034;2023-05-01T02:50:35;100624.03;;;10.07;77.02
41800;BME280;27468;47.460;19.034;2023-05-01T02:53:01;100643.19;;;10.20;76.78
41800;BME280;27468;47.460;19.034;2023-05-01T02:55:27;100664.78;;;10.45;76.61
41800;BME280;27468;47.460;19.034;2023-05-01T02:57:57;100667.44;;;10.43;75.84
41800;BME280;27468;47.460;19.034;2023-05-01T03:00:22;100608.25;;;10.06;75.36
41800;BME280;27468;47.460;19.034;2023-05-01T03:02:47;100696.19;;;10.60;75.21
41800;BME280;27468;47.460;19.034;2023-05-01T03:05:13;100666.53;;;10.46;74.85
41800;BME280;27468;47.460;19.034;2023-05-01T03:07:39;100664.72;;;10.48;75.17
41800;BME280;27468;47.460;19.034;2023-05-01T03:10:05;100692.50;;;10.72;74.92
41800;BME280;27468;47.460;19.034;2023-05-01T03:12:32;100658.47;;;10.55;74.45
41800;BME280;27468;47.460;19.034;2023-05-01T03:14:58;100701.16;;;10.80;74.82
41800;BME280;27468;47.460;19.034;2023-05-01T03:17:23;100703.66;;;10.89;74.76
41800;BME280;27468;47.460;19.034;2023-05-01T03:19:49;100688.78;;;10.85;74.69
41800;BME280;27468;47.460;19.034;2023-05-01T03:22:16;100679.97;;;10.86;75.01
41800;BME280;27468;47.460;19.034;2023-05-01T03:24:41;100669.56;;;10.77;74.90
41800;BME280;27468;47.460;19.034;2023-05-01T03:27:07;100708.72;;;11.01;74.90
41800;BME280;27468;47.460;19.034;2023-05-01T03:29:33;100675.56;;;10.86;74.93
41800;BME280;27468;47.460;19.034;2023-05-01T03:31:59;100673.72;;;10.93;74.95
41800;BME280;27468;47.460;19.034;2023-05-01T03:34:24;100702.53;;;11.04;75.05
41800;BME280;27468;47.460;19.034;2023-05-01T03:36:50;100680.66;;;10.97;75.15
41800;BME280;27468;47.460;19.034;2023-05-01T03:39:16;100684.16;;;10.98;74.94
41800;BME280;27468;47.460;19.034;2023-05-01T03:41:41;100651.84;;;10.85;74.85
41800;BME280;27468;47.460;19.034;2023-05-01T03:44:07;100696.31;;;11.06;74.27
41800;BME280;27468;47.460;19.034;2023-05-01T03:46:32;100688.44;;;11.03;73.52
41800;BME280;27468;47.460;19.034;2023-05-01T03:48:58;100703.16;;;11.18;73.60
41800;BME280;27468;47.460;19.034;2023-05-01T03:51:23;100658.63;;;10.98;72.67
41800;BME280;27468;47.460;19.034;2023-05-01T03:53:49;100654.38;;;10.93;72.91
41800;BME280;27468;47.460;19.034;2023-05-01T03:56:16;100702.19;;;11.23;72.50
41800;BME280;27468;47.460;19.034;2023-05-01T03:58:42;100722.47;;;11.21;71.91
41800;BME280;27468;47.460;19.034;2023-05-01T04:01:08;100648.41;;;10.80;71.53
41800;BME280;27468;47.460;19.034;2023-05-01T04:03:33;100702.56;;;11.01;71.19
41800;BME280;27468;47.460;19.034;2023-05-01T04:05:58;100682.47;;;10.95;71.02
41800;BME280;27468;47.460;19.034;2023-05-01T04:08:24;100641.53;;;10.71;70.28
41800;BME280;27468;47.460;19.034;2023-05-01T04:10:49;100707.75;;;11.07;69.77
41800;BME280;27468;47.460;19.034;2023-05-01T04:13:15;100647.66;;;10.73;69.39
41800;BME280;27468;47.460;19.034;2023-05-01T04:15:44;100716.41;;;11.15;69.20
41800;BME280;27468;47.460;19.034;2023-05-01T04:18:13;100678.06;;;10.96;68.63
41800;BME280;27468;47.460;19.034;2023-05-01T04:20:38;100683.25;;;10.99;67.05
41800;BME280;27468;47.460;19.034;2023-05-01T04:23:07;100724.13;;;11.27;68.15
41800;BME280;27468;47.460;19.034;2023-05-01T04:25:35;100682.97;;;11.15;68.50
41800;BME280;27468;47.460;19.034;2023-05-01T04:28:00;100725.28;;;11.58;68.72
41800;BME280;27468;47.460;19.034;2023-05-01T04:30:25;100714.75;;;12.05;68.57
41800;BME280;27468;47.460;19.034;2023-05-01T04:32:51;100669.59;;;12.54;66.02
41800;BME280;27468;47.460;19.034;2023-05-01T04:35:16;100648.47;;;13.24;64.33
41800;BME280;27468;47.460;19.034;2023-05-01T04:37:42;100710.50;;;14.42;60.75
41800;BME280;27468;47.460;19.034;2023-05-01T04:40:07;100656.09;;;14.83;59.15
41800;BME280;27468;47.460;19.034;2023-05-01T04:42:33;100678.13;;;15.38;57.29
41800;BME280;27468;47.460;19.034;2023-05-01T04:44:58;100658.66;;;15.37;55.69
41800;BME280;27468;47.460;19.034;2023-05-01T04:47:28;100697.78;;;15.32;56.46
41800;BME280;27468;47.460;19.034;2023-05-01T04:49:53;100724.19;;;15.10;56.47
41800;BME280;27468;47.460;19.034;2023-05-01T04:52:19;100675.94;;;14.71;57.57
41800;BME280;27468;47.460;19.034;2023-05-01T04:54:44;100686.22;;;14.54;57.58
41800;BME280;27468;47.460;19.034;2023-05-01T04:57:10;100708.81;;;14.38;58.37
41800;BME280;27468;47.460;19.034;2023-05-01T04:59:35;100726.91;;;14.24;59.37
41800;BME280;27468;47.460;19.034;2023-05-01T05:02:01;100680.28;;;13.54;61.26
41800;BME280;27468;47.460;19.034;2023-05-01T05:04:26;100706.44;;;13.34;63.47
41800;BME280;27468;47.460;19.034;2023-05-01T05:06:52;100678.63;;;13.18;64.53
41800;BME280;27468;47.460;19.034;2023-05-01T05:09:17;100694.56;;;13.16;65.44
41800;BME280;27468;47.460;19.034;2023-05-01T05:11:43;100742.22;;;13.15;66.90
41800;BME280;27468;47.460;19.034;2023-05-01T05:14:09;100731.19;;;12.96;67.09
41800;BME280;27468;47.460;19.034;2023-05-01T05:16:34;100691.41;;;12.64;67.08
41800;BME280;27468;47.460;19.034;2023-05-01T05:19:00;100737.06;;;12.72;66.30
41800;BME280;27468;47.460;19.034;2023-05-01T05:21:25;100686.56;;;12.44;63.65
41800;BME280;27468;47.460;19.034;2023-05-01T05:23:51;100680.19;;;12.54;64.75
41800;BME280;27468;47.460;19.034;2023-05-01T05:26:16;100682.25;;;12.40;62.13
41800;BME280;27468;47.460;19.034;2023-05-01T05:28:42;100725.50;;;12.76;62.53
41800;BME280;27468;47.460;19.034;2023-05-01T05:31:08;100723.78;;;12.73;63.28
41800;BME280;27468;47.460;19.034;2023-05-01T05:33:33;100720.63;;;12.59;62.14
41800;BME280;27468;47.460;19.034;2023-05-01T05:35:59;100739.88;;;12.66;59.26
41800;BME280;27468;47.460;19.034;2023-05-01T05:38:24;100742.28;;;12.75;57.52
41800;BME280;27468;47.460;19.034;2023-05-01T05:40:50;100715.31;;;12.59;58.24
41800;BME280;27468;47.460;19.034;2023-05-01T05:43:15;100733.63;;;12.68;56.48
41800;BME280;27468;47.460;19.034;2023-05-01T05:45:41;100744.72;;;12.84;57.03
41800;BME280;27468;47.460;19.034;2023-05-01T05:48:06;100756.00;;;12.92;54.59
41800;BME280;27468;47.460;19.034;2023-05-01T05:50:31;100710.78;;;12.66;53.27
41800;BME280;27468;47.460;19.034;2023-05-01T05:52:57;100748.28;;;12.81;52.00
41800;BME280;27468;47.460;19.034;2023-05-01T05:55:22;100751.78;;;12.83;50.77
41800;BME280;27468;47.460;19.034;2023-05-01T05:57:48;100746.34;;;12.89;50.82
41800;BME280;27468;47.460;19.034;2023-05-01T06:00:13;100708.72;;;12.77;51.62
41800;BME280;27468;47.460;19.034;2023-05-01T06:02:39;100756.56;;;13.05;52.34
41800;BME280;27468;47.460;19.034;2023-05-01T06:05:05;100699.78;;;12.81;50.81
41800;BME280;27468;47.460;19.034;2023-05-01T06:07:31;100723.31;;;12.93;49.95
41800;BME280;27468;47.460;19.034;2023-05-01T06:09:57;100739.75;;;13.07;50.00
41800;BME280;27468;47.460;19.034;2023-05-01T06:12:31;100754.47;;;13.20;47.66
41800;BME280;27468;47.460;19.034;2023-05-01T06:14:58;100744.13;;;13.08;46.22
41800;BME280;27468;47.460;19.034;2023-05-01T06:17:24;100759.78;;;13.19;46.12
41800;BME280;27468;47.460;19.034;2023-05-01T06:19:49;100734.44;;;13.07;45.43
41800;BME280;27468;47.460;19.034;2023-05-01T06:22:17;100712.75;;;12.93;44.10
41800;BME280;27468;47.460;19.034;2023-05-01T06:24:42;100721.38;;;13.01;43.44
41800;BME280;27468;47.460;19.034;2023-05-01T06:27:08;100755.19;;;13.27;43.57
41800;BME280;27468;47.460;19.034;2023-05-01T06:29:33;100727.19;;;13.15;42.94
41800;BME280;27468;47.460;19.034;2023-05-01T06:31:58;100757.75;;;13.29;42.81
41800;BME280;27468;47.460;19.034;2023-05-01T06:34:24;100761.16;;;13.34;42.32
41800;BME280;27468;47.460;19.034;2023-05-01T06:36:50;100768.00;;;13.42;41.99
41800;BME280;27468;47.460;19.034;2023-05-01T06:39:15;100762.63;;;13.45;41.76
41800;BME280;27468;47.460;19.034;2023-05-01T06:41:40;100710.28;;;13.23;41.92
41800;BME280;27468;47.460;19.034;2023-05-01T06:44:06;100753.41;;;13.62;42.07
41800;BME280;27468;47.460;19.034;2023-05-01T06:46:31;100759.41;;;13.68;41.43
41800;BME280;27468;47.460;19.034;2023-05-01T06:48:56;100759.28;;;13.73;40.48
41800;BME280;27468;47.460;19.034;2023-05-01T06:51:22;100716.31;;;13.62;41.06
41800;BME280;27468;47.460;19.034;2023-05-01T06:53:47;100758.69;;;13.94;41.80
41800;BME280;27468;47.460;19.034;2023-05-01T06:56:13;100702.84;;;13.69;40.33
41800;BME280;27468;47.460;19.034;2023-05-01T06:58:38;100691.56;;;13.63;38.78
41800;BME280;27468;47.460;19.034;2023-05-01T07:01:03;100753.13;;;14.03;39.07
41800;BME280;27468;47.460;19.034;2023-05-01T07:03:29;100753.69;;;14.14;39.84
41800;BME280;27468;47.460;19.034;2023-05-01T07:05:54;100744.88;;;14.14;39.03
41800;BME280;27468;47.460;19.034;2023-05-01T07:08:20;100702.75;;;14.03;39.39
41800;BME280;27468;47.460;19.034;2023-05-01T07:10:46;100763.53;;;14.42;38.58
41800;BME280;27468;47.460;19.034;2023-05-01T07:13:11;100730.31;;;14.29;38.26
41800;BME280;27468;47.460;19.034;2023-05-01T07:15:37;100724.16;;;14.27;37.76
41800;BME280;27468;47.460;19.034;2023-05-01T07:18:03;100705.78;;;14.20;37.25
41800;BME280;27468;47.460;19.034;2023-05-01T07:20:30;100752.06;;;14.40;36.81
41800;BME280;27468;47.460;19.034;2023-05-01T07:22:56;100740.22;;;14.22;36.92
41800;BME280;27468;47.460;19.034;2023-05-01T07:25:22;100748.78;;;14.32;37.02
41800;BME280;27468;47.460;19.034;2023-05-01T07:27:47;100741.78;;;14.29;37.09
41800;BME280;27468;47.460;19.034;2023-05-01T07:30:13;100774.00;;;14.46;37.23
41800;BME280;27468;47.460;19.034;2023-05-01T07:32:38;100748.72;;;14.33;37.06
41800;BME280;27468;47.460;19.034;2023-05-01T07:35:05;100697.84;;;14.20;37.82
41800;BME280;27468;47.460;19.034;2023-05-01T07:37:31;100737.84;;;14.44;37.27
41800;BME280;27468;47.460;19.034;2023-05-01T07:39:56;100704.38;;;14.38;37.54
41800;BME280;27468;47.460;19.034;2023-05-01T07:42:22;100731.28;;;14.56;37.33
41800;BME280;27468;47.460;19.034;2023-05-01T07:44:49;100726.97;;;14.51;37.03
41800;BME280;27468;47.460;19.034;2023-05-01T07:47:14;100727.84;;;14.52;36.77
41800;BME280;27468;47.460;19.034;2023-05-01T07:49:40;100732.03;;;14.59;37.34
41800;BME280;27468;47.460;19.034;2023-05-01T07:52:06;100739.72;;;14.68;37.62
41800;BME280;27468;47.460;19.034;2023-05-01T07:54:32;100720.31;;;14.66;38.24
41800;BME280;27468;47.460;19.034;2023-05-01T07:56:57;100738.97;;;14.93;38.39
41800;BME280;27468;47.460;19.034;2023-05-01T07:59:23;100711.97;;;14.78;37.34
41800;BME280;27468;47.460;19.034;2023-05-01T08:01:48;100704.13;;;14.75;37.03
41800;BME280;27468;47.460;19.034;2023-05-01T08:04:14;100742.06;;;15.05;38.01
41800;BME280;27468;47.460;19.034;2023-05-01T08:06:41;100740.91;;;15.14;38.53
41800;BME280;27468;47.460;19.034;2023-05-01T08:09:06;100752.81;;;15.29;38.16
41800;BME280;27468;47.460;19.034;2023-05-01T08:11:32;100756.13;;;15.35;37.86
41800;BME280;27468;47.460;19.034;2023-05-01T08:13:57;100743.06;;;15.29;37.93
41800;BME280;27468;47.460;19.034;2023-05-01T08:16:23;100738.50;;;15.33;37.36
41800;BME280;27468;47.460;19.034;2023-05-01T08:18:48;100758.47;;;15.44;37.32
41800;BME280;27468;47.460;19.034;2023-05-01T08:21:14;100748.72;;;15.45;37.23
41800;BME280;27468;47.460;19.034;2023-05-01T08:23:40;100751.13;;;15.52;36.96
41800;BME280;27468;47.460;19.034;2023-05-01T08:26:05;100740.38;;;15.57;37.33
41800;BME280;27468;47.460;19.034;2023-05-01T08:28:33;100735.94;;;15.58;37.15
41800;BME280;27468;47.460;19.034;2023-05-01T08:30:59;100711.41;;;15.48;36.62
41800;BME280;27468;47.460;19.034;2023-05-01T08:33:24;100740.06;;;15.65;36.65
41800;BME280;27468;47.460;19.034;2023-05-01T08:35:51;100763.47;;;15.80;36.29
41800;BME280;27468;47.460;19.034;2023-05-01T08:38:17;100724.94;;;15.67;36.60
41800;BME280;27468;47.460;19.034;2023-05-01T08:40:46;100708.06;;;15.68;36.52
41800;BME280;27468;47.460;19.034;2023-05-01T08:43:16;100734.00;;;15.86;36.16
41800;BME280;27468;47.460;19.034;2023-05-01T08:45:41;100751.19;;;16.01;36.44
41800;BME280;27468;47.460;19.034;2023-05-01T08:48:08;100738.88;;;15.98;36.42
41800;BME280;27468;47.460;19.034;2023-05-01T08:50:38;100746.81;;;16.00;35.77
41800;BME280;27468;47.460;19.034;2023-05-01T08:53:04;100756.19;;;16.10;36.01
41800;BME280;27468;47.460;19.034;2023-05-01T08:55:31;100688.22;;;15.78;36.79
41800;BME280;27468;47.460;19.034;2023-05-01T08:57:57;100695.00;;;15.87;36.96
41800;BME280;27468;47.460;19.034;2023-05-01T09:00:24;100736.66;;;16.11;36.04
41800;BME280;27468;47.460;19.034;2023-05-01T09:02:50;100736.47;;;16.15;36.28
41800;BME280;27468;47.460;19.034;2023-05-01T09:05:19;100716.47;;;16.05;36.39
41800;BME280;27468;47.460;19.034;2023-05-01T09:07:45;100753.47;;;16.35;35.58
41800;BME280;27468;47.460;19.034;2023-05-01T09:10:13;100744.50;;;16.37;35.80
41800;BME280;27468;47.460;19.034;2023-05-01T09:12:41;100745.09;;;16.45;35.78
41800;BME280;27468;47.460;19.034;2023-05-01T09:15:10;100705.00;;;16.27;35.80
41800;BME280;27468;47.460;19.034;2023-05-01T09:17:35;100709.28;;;16.31;35.32
41800;BME280;27468;47.460;19.034;2023-05-01T09:20:02;100732.66;;;16.46;34.99
41800;BME280;27468;47.460;19.034;2023-05-01T09:22:31;100716.69;;;16.46;35.62
41800;BME280;27468;47.460;19.034;2023-05-01T09:24:57;100743.44;;;16.66;35.72
41800;BME280;27468;47.460;19.034;2023-05-01T09:27:24;100676.88;;;16.43;36.49
41800;BME280;27468;47.460;19.034;2023-05-01T09:29:50;100748.00;;;16.84;35.60
41800;BME280;27468;47.460;19.034;2023-05-01T09:32:26;100737.41;;;16.83;34.86
41800;BME280;27468;47.460;19.034;2023-05-01T09:35:09;100694.72;;;16.63;35.49
41800;BME280;27468;47.460;19.034;2023-05-01T09:37:34;100724.84;;;16.87;35.00
41800;BME280;27468;47.460;19.034;2023-05-01T09:42:30;100730.28;;;17.05;34.30
41800;BME280;27468;47.460;19.034;2023-05-01T09:45:02;100679.50;;;16.88;35.06
41800;BME280;27468;47.460;19.034;2023-05-01T09:47:28;100707.88;;;17.11;34.91
41800;BME280;27468;47.460;19.034;2023-05-01T09:49:55;100725.88;;;17.26;34.52
41800;BME280;27468;47.460;19.034;2023-05-01T09:52:31;100712.38;;;17.31;34.23
41800;BME280;27468;47.460;19.034;2023-05-01T09:57:36;100719.63;;;17.47;34.62
41800;BME280;27468;47.460;19.034;2023-05-01T10:00:03;100712.50;;;17.48;34.24
41800;BME280;27468;47.460;19.034;2023-05-01T10:02:33;100680.38;;;17.31;34.15
41800;BME280;27468;47.460;19.034;2023-05-01T10:04:59;100688.03;;;17.38;33.14
41800;BME280;27468;47.460;19.034;2023-05-01T10:07:24;100710.44;;;17.55;33.21
41800;BME280;27468;47.460;19.034;2023-05-01T10:09:50;100709.75;;;17.49;33.19
41800;BME280;27468;47.460;19.034;2023-05-01T10:12:26;100692.09;;;17.47;33.62
41800;BME280;27468;47.460;19.034;2023-05-01T10:14:53;100657.72;;;17.41;33.93
41800;BME280;27468;47.460;19.034;2023-05-01T10:17:19;100697.25;;;17.72;33.54
41800;BME280;27468;47.460;19.034;2023-05-01T10:19:46;100697.00;;;17.78;33.57
41800;BME280;27468;47.460;19.034;2023-05-01T10:22:12;100661.94;;;17.67;32.74
41800;BME280;27468;47.460;19.034;2023-05-01T10:24:38;100662.03;;;17.64;33.03
41800;BME280;27468;47.460;19.034;2023-05-01T10:27:07;100662.97;;;17.63;33.12
41800;BME280;27468;47.460;19.034;2023-05-01T10:29:36;100688.66;;;17.86;32.99
41800;BME280;27468;47.460;19.034;2023-05-01T10:32:05;100623.91;;;17.62;33.37
41800;BME280;27468;47.460;19.034;2023-05-01T10:34:38;100667.97;;;17.91;33.66
41800;BME280;27468;47.460;19.034;2023-05-01T10:37:19;100635.59;;;17.79;33.30
41800;BME280;27468;47.460;19.034;2023-05-01T10:39:45;100618.88;;;17.76;33.27
41800;BME280;27468;47.460;19.034;2023-05-01T10:42:11;100582.88;;;17.66;33.70
41800;BME280;27468;47.460;19.034;2023-05-01T10:44:41;100657.31;;;18.09;33.98
41800;BME280;27468;47.460;19.034;2023-05-01T10:50:06;100618.44;;;18.04;33.66
41800;BME280;27468;47.460;19.034;2023-05-01T10:55:38;100646.00;;;18.42;33.82
41800;BME280;27468;47.460;19.034;2023-05-01T10:58:04;100616.34;;;18.29;33.41
41800;BME280;27468;47.460;19.034;2023-05-01T11:00:30;100626.66;;;18.37;33.22
41800;BME280;27468;47.460;19.034;2023-05-01T11:08:31;100651.66;;;18.72;33.02
41800;BME280;27468;47.460;19.034;2023-05-01T11:10:57;100620.19;;;18.60;33.58
41800;BME280;27468;47.460;19.034;2023-05-01T11:19:42;100644.53;;;19.07;33.08
41800;BME280;27468;47.460;19.034;2023-05-01T11:21:57;100594.66;;;18.90;33.05
41800;BME280;27468;47.460;19.034;2023-05-01T11:24:31;100630.72;;;19.16;33.11
41800;BME280;27468;47.460;19.034;2023-05-01T11:26:57;100630.16;;;19.27;32.59
41800;BME280;27468;47.460;19.034;2023-05-01T11:29:30;100589.63;;;19.01;32.28
41800;BME280;27468;47.460;19.034;2023-05-01T11:31:56;100583.84;;;19.09;32.05
41800;BME280;27468;47.460;19.034;2023-05-01T11:34:22;100605.31;;;19.25;32.53
41800;BME280;27468;47.460;19.034;2023-05-01T11:36:49;100625.91;;;19.40;32.87
41800;BME280;27468;47.460;19.034;2023-05-01T11:39:15;100583.22;;;19.21;32.51
41800;BME280;27468;47.460;19.034;2023-05-01T11:41:44;100608.59;;;19.47;32.19
41800;BME280;27468;47.460;19.034;2023-05-01T11:44:14;100617.28;;;19.52;32.92
41800;BME280;27468;47.460;19.034;2023-05-01T11:46:40;100595.03;;;19.52;32.56
41800;BME280;27468;47.460;19.034;2023-05-01T11:49:06;100562.34;;;19.45;32.92
41800;BME280;27468;47.460;19.034;2023-05-01T11:51:32;100571.50;;;19.58;32.03
41800;BME280;27468;47.460;19.034;2023-05-01T11:54:01;100611.22;;;19.82;32.42
41800;BME280;27468;47.460;19.034;2023-05-01T11:56:28;100598.94;;;19.77;31.45
41800;BME280;27468;47.460;19.034;2023-05-01T11:58:55;100591.16;;;19.73;31.41
41800;BME280;27468;47.460;19.034;2023-05-01T12:01:32;100585.38;;;19.65;31.74
41800;BME280;27468;47.460;19.034;2023-05-01T12:03:57;100587.09;;;19.66;31.87
41800;BME280;27468;47.460;19.034;2023-05-01T12:06:43;100606.56;;;19.85;31.30
41800;BME280;27468;47.460;19.034;2023-05-01T12:09:23;100616.22;;;19.88;31.32
41800;BME280;27468;47.460;19.034;2023-05-01T12:11:52;100602.16;;;19.84;31.34
41800;BME280;27468;47.460;19.034;2023-05-01T12:14:18;100592.81;;;19.75;31.91
41800;BME280;27468;47.460;19.034;2023-05-01T12:16:45;100596.03;;;19.82;32.14
41800;BME280;27468;47.460;19.034;2023-05-01T12:19:14;100578.78;;;19.88;31.85
41800;BME280;27468;47.460;19.034;2023-05-01T12:21:40;100584.47;;;19.97;31.95
41800;BME280;27468;47.460;19.034;2023-05-01T12:24:17;100588.81;;;20.00;31.95
41800;BME280;27468;47.460;19.034;2023-05-01T12:26:43;100541.13;;;19.75;32.39
41800;BME280;27468;47.460;19.034;2023-05-01T12:29:09;100594.69;;;20.06;32.69
41800;BME280;27468;47.460;19.034;2023-05-01T12:31:36;100539.75;;;19.84;32.69
41800;BME280;27468;47.460;19.034;2023-05-01T12:34:09;100575.41;;;20.00;32.27
41800;BME280;27468;47.460;19.034;2023-05-01T12:36:36;100580.19;;;20.10;32.31
41800;BME280;27468;47.460;19.034;2023-05-01T12:39:09;100531.56;;;19.87;32.83
41800;BME280;27468;47.460;19.034;2023-05-01T12:41:47;100577.94;;;20.19;32.73
41800;BME280;27468;47.460;19.034;2023-05-01T12:46:45;100569.81;;;20.20;32.50
41800;BME280;27468;47.460;19.034;2023-05-01T12:49:16;100543.31;;;20.16;32.58
41800;BME280;27468;47.460;19.034;2023-05-01T12:51:50;100561.41;;;20.26;32.74
41800;BME280;27468;47.460;19.034;2023-05-01T12:54:27;100542.97;;;20.22;33.03
41800;BME280;27468;47.460;19.034;2023-05-01T12:56:53;100492.28;;;19.87;32.69
41800;BME280;27468;47.460;19.034;2023-05-01T12:59:28;100502.13;;;19.87;32.93
41800;BME280;27468;47.460;19.034;2023-05-01T13:02:01;100547.34;;;20.23;32.86
41800;BME280;27468;47.460;19.034;2023-05-01T13:04:27;100527.34;;;20.14;32.48
41800;BME280;27468;47.460;19.034;2023-05-01T13:06:53;100555.09;;;20.27;33.19
41800;BME280;27468;47.460;19.034;2023-05-01T13:09:26;100525.25;;;20.19;32.52
41800;BME280;27468;47.460;19.034;2023-05-01T13:12:10;100523.06;;;20.26;32.73
41800;BME280;27468;47.460;19.034;2023-05-01T13:14:37;100534.47;;;20.29;32.44